sensor_id;sensor_type;location;lat;lon;timestamp;P1;durP1;ratioP1;P2;durP2;ratioP2
66739;SDS011;53653;52.188;8.602;2023-06-22T00:00:57;14.52;;;9.50;;
66739;SDS011;53653;52.188;8.602;2023-06-22T00:03:24;15.07;;;8.95;;
66739;SDS011;53653;52.188;8.602;2023-06-22T00:05:50;15.27;;;9.82;;
66739;SDS011;53653;52.188;8.602;2023-06-22T00:08:17;18.15;;;11.10;;
66739;SDS011;53653;52.188;8.602;2023-06-22T00:10:43;16.83;;;10.97;;
66739;SDS011;53653;52.188;8.602;2023-06-22T00:13:10;17.30;;;11.38;;
66739;SDS011;53653;52.188;8.602;2023-06-22T00:15:37;15.50;;;10.85;;
66739;SDS011;53653;52.188;8.602;2023-06-22T00:18:05;17.20;;;11.15;;
66739;SDS011;53653;52.188;8.602;2023-06-22T00:20:32;19.05;;;11.70;;
66739;SDS011;53653;52.188;8.602;2023-06-22T00:23:02;18.20;;;11.27;;
66739;SDS011;53653;52.188;8.602;2023-06-22T00:25:37;19.92;;;12.13;;
66739;SDS011;53653;52.188;8.602;2023-06-22T00:28:05;17.75;;;11.85;;
66739;SDS011;53653;52.188;8.602;2023-06-22T00:30:33;17.38;;;11.77;;
66739;SDS011;53653;52.188;8.602;2023-06-22T00:32:59;19.80;;;12.55;;
66739;SDS011;53653;52.188;8.602;2023-06-22T00:35:26;17.57;;;12.07;;
66739;SDS011;53653;52.188;8.602;2023-06-22T00:37:55;17.20;;;11.75;;
66739;SDS011;53653;52.188;8.602;2023-06-22T00:40:29;17.27;;;12.05;;
66739;SDS011;53653;52.188;8.602;2023-06-22T00:42:56;18.10;;;12.60;;
66739;SDS011;53653;52.188;8.602;2023-06-22T00:45:23;18.83;;;13.30;;
66739;SDS011;53653;52.188;8.602;2023-06-22T00:47:51;20.87;;;12.93;;
66739;SDS011;53653;52.188;8.602;2023-06-22T00:50:25;19.77;;;13.38;;
66739;SDS011;53653;52.188;8.602;2023-06-22T00:52:53;21.50;;;14.43;;
66739;SDS011;53653;52.188;8.602;2023-06-22T00:55:24;21.52;;;14.18;;
66739;SDS011;53653;52.188;8.602;2023-06-22T00:57:51;21.27;;;15.52;;
66739;SDS011;53653;52.188;8.602;2023-06-22T01:00:21;21.80;;;15.03;;
66739;SDS011;53653;52.188;8.602;2023-06-22T01:02:50;22.05;;;15.40;;
66739;SDS011;53653;52.188;8.602;2023-06-22T01:05:18;23.65;;;14.82;;
66739;SDS011;53653;52.188;8.602;2023-06-22T01:10:35;20.75;;;14.18;;
66739;SDS011;53653;52.188;8.602;2023-06-22T01:13:29;18.87;;;13.77;;
66739;SDS011;53653;52.188;8.602;2023-06-22T01:16:08;21.10;;;14.18;;
66739;SDS011;53653;52.188;8.602;2023-06-22T01:18:40;22.10;;;14.30;;
66739;SDS011;53653;52.188;8.602;2023-06-22T01:21:07;22.10;;;14.68;;
66739;SDS011;53653;52.188;8.602;2023-06-22T01:23:45;20.38;;;14.57;;
66739;SDS011;53653;52.188;8.602;2023-06-22T01:28:55;22.70;;;13.73;;
66739;SDS011;53653;52.188;8.602;2023-06-22T01:31:27;22.95;;;13.93;;
66739;SDS011;53653;52.188;8.602;2023-06-22T01:34:05;19.92;;;13.60;;
66739;SDS011;53653;52.188;8.602;2023-06-22T01:36:32;21.17;;;14.40;;
66739;SDS011;53653;52.188;8.602;2023-06-22T01:38:59;20.90;;;14.03;;
66739;SDS011;53653;52.188;8.602;2023-06-22T01:41:26;19.45;;;13.70;;
66739;SDS011;53653;52.188;8.602;2023-06-22T01:43:55;21.83;;;13.43;;
66739;SDS011;53653;52.188;8.602;2023-06-22T01:46:22;21.75;;;13.27;;
66739;SDS011;53653;52.188;8.602;2023-06-22T01:48:49;19.52;;;13.63;;
66739;SDS011;53653;52.188;8.602;2023-06-22T01:51:16;20.10;;;13.33;;
66739;SDS011;53653;52.188;8.602;2023-06-22T01:53:42;21.08;;;13.82;;
66739;SDS011;53653;52.188;8.602;2023-06-22T01:56:08;21.25;;;13.48;;
66739;SDS011;53653;52.188;8.602;2023-06-22T01:58:34;23.15;;;14.15;;
66739;SDS011;53653;52.188;8.602;2023-06-22T02:03:42;25.05;;;14.13;;
66739;SDS011;53653;52.188;8.602;2023-06-22T02:06:16;20.83;;;14.55;;
66739;SDS011;53653;52.188;8.602;2023-06-22T02:08:47;19.70;;;13.85;;
66739;SDS011;53653;52.188;8.602;2023-06-22T02:11:18;20.58;;;13.90;;
66739;SDS011;53653;52.188;8.602;2023-06-22T02:13:45;20.23;;;13.47;;
66739;SDS011;53653;52.188;8.602;2023-06-22T02:16:13;18.50;;;12.43;;
66739;SDS011;53653;52.188;8.602;2023-06-22T02:18:45;18.02;;;12.95;;
66739;SDS011;53653;52.188;8.602;2023-06-22T02:21:20;18.70;;;12.40;;
66739;SDS011;53653;52.188;8.602;2023-06-22T02:23:47;20.45;;;12.85;;
66739;SDS011;53653;52.188;8.602;2023-06-22T02:26:13;17.40;;;12.10;;
66739;SDS011;53653;52.188;8.602;2023-06-22T02:28:41;17.70;;;12.07;;
66739;SDS011;53653;52.188;8.602;2023-06-22T02:31:08;19.17;;;12.30;;
66739;SDS011;53653;52.188;8.602;2023-06-22T02:33:33;20.57;;;11.87;;
66739;SDS011;53653;52.188;8.602;2023-06-22T02:35:59;17.52;;;12.13;;
66739;SDS011;53653;52.188;8.602;2023-06-22T02:38:25;19.35;;;12.07;;
66739;SDS011;53653;52.188;8.602;2023-06-22T02:40:51;22.05;;;13.32;;
66739;SDS011;53653;52.188;8.602;2023-06-22T02:43:17;20.93;;;12.33;;
66739;SDS011;53653;52.188;8.602;2023-06-22T02:45:43;20.27;;;12.23;;
66739;SDS011;53653;52.188;8.602;2023-06-22T02:48:10;19.08;;;12.40;;
66739;SDS011;53653;52.188;8.602;2023-06-22T02:50:36;18.27;;;12.02;;
66739;SDS011;53653;52.188;8.602;2023-06-22T02:53:03;20.70;;;12.77;;
66739;SDS011;53653;52.188;8.602;2023-06-22T02:55:34;18.08;;;12.65;;
66739;SDS011;53653;52.188;8.602;2023-06-22T02:58:00;19.92;;;12.23;;
66739;SDS011;53653;52.188;8.602;2023-06-22T03:00:31;20.85;;;13.07;;
66739;SDS011;53653;52.188;8.602;2023-06-22T03:02:57;21.67;;;12.97;;
66739;SDS011;53653;52.188;8.602;2023-06-22T03:05:23;18.67;;;12.32;;
66739;SDS011;53653;52.188;8.602;2023-06-22T03:07:49;22.05;;;13.05;;
66739;SDS011;53653;52.188;8.602;2023-06-22T03:10:15;17.80;;;12.52;;
66739;SDS011;53653;52.188;8.602;2023-06-22T03:12:42;20.17;;;12.63;;
66739;SDS011;53653;52.188;8.602;2023-06-22T03:15:10;22.25;;;13.05;;
66739;SDS011;53653;52.188;8.602;2023-06-22T03:17:38;19.83;;;14.05;;
66739;SDS011;53653;52.188;8.602;2023-06-22T03:20:06;21.50;;;12.88;;
66739;SDS011;53653;52.188;8.602;2023-06-22T03:22:40;19.38;;;13.10;;
66739;SDS011;53653;52.188;8.602;2023-06-22T03:25:09;19.97;;;12.57;;
66739;SDS011;53653;52.188;8.602;2023-06-22T03:27:40;20.88;;;12.82;;
66739;SDS011;53653;52.188;8.602;2023-06-22T03:30:07;21.35;;;13.57;;
66739;SDS011;53653;52.188;8.602;2023-06-22T03:32:34;22.33;;;13.25;;
66739;SDS011;53653;52.188;8.602;2023-06-22T03:35:00;22.60;;;13.90;;
66739;SDS011;53653;52.188;8.602;2023-06-22T03:37:27;21.70;;;13.70;;
66739;SDS011;53653;52.188;8.602;2023-06-22T03:39:54;24.08;;;13.18;;
66739;SDS011;53653;52.188;8.602;2023-06-22T03:42:21;22.75;;;13.13;;
66739;SDS011;53653;52.188;8.602;2023-06-22T03:44:46;18.67;;;12.67;;
66739;SDS011;53653;52.188;8.602;2023-06-22T03:47:13;21.58;;;12.95;;
66739;SDS011;53653;52.188;8.602;2023-06-22T03:49:39;22.45;;;13.07;;
66739;SDS011;53653;52.188;8.602;2023-06-22T03:52:05;24.10;;;13.07;;
66739;SDS011;53653;52.188;8.602;2023-06-22T03:54:31;21.13;;;12.97;;
66739;SDS011;53653;52.188;8.602;2023-06-22T03:56:57;20.67;;;12.82;;
66739;SDS011;53653;52.188;8.602;2023-06-22T03:59:23;25.52;;;13.70;;
66739;SDS011;53653;52.188;8.602;2023-06-22T04:01:49;19.98;;;13.57;;
66739;SDS011;53653;52.188;8.602;2023-06-22T04:04:17;24.43;;;13.10;;
66739;SDS011;53653;52.188;8.602;2023-06-22T04:06:43;21.95;;;13.30;;
66739;SDS011;53653;52.188;8.602;2023-06-22T04:09:09;22.40;;;13.57;;
66739;SDS011;53653;52.188;8.602;2023-06-22T04:11:35;20.23;;;12.57;;
66739;SDS011;53653;52.188;8.602;2023-06-22T04:14:00;24.73;;;13.43;;
66739;SDS011;53653;52.188;8.602;2023-06-22T04:16:26;20.25;;;13.77;;
66739;SDS011;53653;52.188;8.602;2023-06-22T04:18:52;18.47;;;12.70;;
66739;SDS011;53653;52.188;8.602;2023-06-22T04:21:18;21.80;;;13.90;;
66739;SDS011;53653;52.188;8.602;2023-06-22T04:23:47;19.90;;;13.50;;
66739;SDS011;53653;52.188;8.602;2023-06-22T04:26:13;23.55;;;13.23;;
66739;SDS011;53653;52.188;8.602;2023-06-22T04:28:40;19.58;;;13.15;;
66739;SDS011;53653;52.188;8.602;2023-06-22T04:31:06;20.17;;;13.63;;
66739;SDS011;53653;52.188;8.602;2023-06-22T04:33:32;20.42;;;13.70;;
66739;SDS011;53653;52.188;8.602;2023-06-22T04:35:58;20.03;;;13.70;;
66739;SDS011;53653;52.188;8.602;2023-06-22T04:38:26;19.42;;;12.70;;
66739;SDS011;53653;52.188;8.602;2023-06-22T04:40:52;19.55;;;12.98;;
66739;SDS011;53653;52.188;8.602;2023-06-22T04:43:19;20.38;;;13.45;;
66739;SDS011;53653;52.188;8.602;2023-06-22T04:45:45;18.87;;;13.03;;
66739;SDS011;53653;52.188;8.602;2023-06-22T04:48:11;18.83;;;12.88;;
66739;SDS011;53653;52.188;8.602;2023-06-22T04:50:41;20.65;;;13.65;;
66739;SDS011;53653;52.188;8.602;2023-06-22T04:53:07;20.80;;;13.25;;
66739;SDS011;53653;52.188;8.602;2023-06-22T04:55:34;19.75;;;13.15;;
66739;SDS011;53653;52.188;8.602;2023-06-22T04:58:02;22.27;;;12.83;;
66739;SDS011;53653;52.188;8.602;2023-06-22T05:00:30;20.00;;;12.85;;
66739;SDS011;53653;52.188;8.602;2023-06-22T05:02:57;20.45;;;13.70;;
66739;SDS011;53653;52.188;8.602;2023-06-22T05:05:27;19.38;;;13.10;;
66739;SDS011;53653;52.188;8.602;2023-06-22T05:07:52;19.03;;;13.33;;
66739;SDS011;53653;52.188;8.602;2023-06-22T05:10:19;18.40;;;12.73;;
66739;SDS011;53653;52.188;8.602;2023-06-22T05:12:46;21.27;;;13.30;;
66739;SDS011;53653;52.188;8.602;2023-06-22T05:15:12;22.58;;;13.25;;
66739;SDS011;53653;52.188;8.602;2023-06-22T05:17:38;19.63;;;13.82;;
66739;SDS011;53653;52.188;8.602;2023-06-22T05:20:09;23.27;;;13.83;;
66739;SDS011;53653;52.188;8.602;2023-06-22T05:22:35;22.50;;;13.45;;
66739;SDS011;53653;52.188;8.602;2023-06-22T05:25:01;22.27;;;14.57;;
66739;SDS011;53653;52.188;8.602;2023-06-22T05:27:27;23.00;;;14.13;;
66739;SDS011;53653;52.188;8.602;2023-06-22T05:29:53;21.63;;;14.17;;
66739;SDS011;53653;52.188;8.602;2023-06-22T05:32:18;22.20;;;15.13;;
66739;SDS011;53653;52.188;8.602;2023-06-22T05:34:45;21.08;;;14.43;;
66739;SDS011;53653;52.188;8.602;2023-06-22T05:37:11;24.63;;;15.50;;
66739;SDS011;53653;52.188;8.602;2023-06-22T05:39:38;22.67;;;14.35;;
66739;SDS011;53653;52.188;8.602;2023-06-22T05:42:05;27.63;;;14.30;;
66739;SDS011;53653;52.188;8.602;2023-06-22T05:44:32;20.33;;;14.35;;
66739;SDS011;53653;52.188;8.602;2023-06-22T05:46:58;22.38;;;14.45;;
66739;SDS011;53653;52.188;8.602;2023-06-22T05:49:25;23.03;;;14.63;;
66739;SDS011;53653;52.188;8.602;2023-06-22T05:51:55;21.45;;;14.60;;
66739;SDS011;53653;52.188;8.602;2023-06-22T05:54:22;24.85;;;15.32;;
66739;SDS011;53653;52.188;8.602;2023-06-22T05:56:47;22.58;;;14.43;;
66739;SDS011;53653;52.188;8.602;2023-06-22T05:59:13;20.93;;;14.67;;
66739;SDS011;53653;52.188;8.602;2023-06-22T06:01:39;23.10;;;15.10;;
66739;SDS011;53653;52.188;8.602;2023-06-22T06:04:05;22.83;;;15.48;;
66739;SDS011;53653;52.188;8.602;2023-06-22T06:06:33;22.60;;;14.73;;
66739;SDS011;53653;52.188;8.602;2023-06-22T06:09:00;21.27;;;14.57;;
66739;SDS011;53653;52.188;8.602;2023-06-22T06:11:27;24.23;;;15.57;;
66739;SDS011;53653;52.188;8.602;2023-06-22T06:13:53;21.95;;;14.60;;
66739;SDS011;53653;52.188;8.602;2023-06-22T06:16:19;21.93;;;15.23;;
66739;SDS011;53653;52.188;8.602;2023-06-22T06:18:45;23.45;;;15.23;;
66739;SDS011;53653;52.188;8.602;2023-06-22T06:21:10;22.90;;;15.43;;
66739;SDS011;53653;52.188;8.602;2023-06-22T06:23:37;23.95;;;15.25;;
66739;SDS011;53653;52.188;8.602;2023-06-22T06:26:02;21.73;;;15.38;;
66739;SDS011;53653;52.188;8.602;2023-06-22T06:28:32;23.53;;;15.63;;
66739;SDS011;53653;52.188;8.602;2023-06-22T06:30:58;22.65;;;15.13;;
66739;SDS011;53653;52.188;8.602;2023-06-22T06:33:24;22.30;;;15.68;;
66739;SDS011;53653;52.188;8.602;2023-06-22T06:35:50;25.10;;;15.83;;
66739;SDS011;53653;52.188;8.602;2023-06-22T06:38:16;22.55;;;16.13;;
66739;SDS011;53653;52.188;8.602;2023-06-22T06:40:42;23.92;;;15.80;;
66739;SDS011;53653;52.188;8.602;2023-06-22T06:43:08;25.02;;;16.60;;
66739;SDS011;53653;52.188;8.602;2023-06-22T06:45:34;26.83;;;16.40;;
66739;SDS011;53653;52.188;8.602;2023-06-22T06:48:00;24.67;;;15.55;;
66739;SDS011;53653;52.188;8.602;2023-06-22T06:50:27;23.70;;;16.50;;
66739;SDS011;53653;52.188;8.602;2023-06-22T06:52:53;22.85;;;16.25;;
66739;SDS011;53653;52.188;8.602;2023-06-22T06:55:21;21.90;;;15.57;;
66739;SDS011;53653;52.188;8.602;2023-06-22T06:57:50;24.33;;;16.52;;
66739;SDS011;53653;52.188;8.602;2023-06-22T07:00:18;23.38;;;16.45;;
66739;SDS011;53653;52.188;8.602;2023-06-22T07:02:44;25.10;;;17.48;;
66739;SDS011;53653;52.188;8.602;2023-06-22T07:05:11;25.85;;;17.33;;
66739;SDS011;53653;52.188;8.602;2023-06-22T07:07:37;24.03;;;16.63;;
66739;SDS011;53653;52.188;8.602;2023-06-22T07:10:04;27.73;;;16.88;;
66739;SDS011;53653;52.188;8.602;2023-06-22T07:12:31;23.33;;;16.35;;
66739;SDS011;53653;52.188;8.602;2023-06-22T07:15:03;26.85;;;16.90;;
66739;SDS011;53653;52.188;8.602;2023-06-22T07:17:30;23.52;;;16.33;;
66739;SDS011;53653;52.188;8.602;2023-06-22T07:19:56;25.93;;;16.73;;
66739;SDS011;53653;52.188;8.602;2023-06-22T07:22:22;25.15;;;16.75;;
66739;SDS011;53653;52.188;8.602;2023-06-22T07:24:48;24.98;;;16.83;;
66739;SDS011;53653;52.188;8.602;2023-06-22T07:27:14;24.23;;;16.20;;
66739;SDS011;53653;52.188;8.602;2023-06-22T07:29:44;24.10;;;16.95;;
66739;SDS011;53653;52.188;8.602;2023-06-22T07:32:10;22.50;;;16.48;;
66739;SDS011;53653;52.188;8.602;2023-06-22T07:34:36;23.75;;;16.63;;
66739;SDS011;53653;52.188;8.602;2023-06-22T07:37:02;24.25;;;17.35;;
66739;SDS011;53653;52.188;8.602;2023-06-22T07:39:30;32.33;;;19.03;;
66739;SDS011;53653;52.188;8.602;2023-06-22T07:41:56;26.95;;;17.13;;
66739;SDS011;53653;52.188;8.602;2023-06-22T07:44:21;26.35;;;18.15;;
66739;SDS011;53653;52.188;8.602;2023-06-22T07:46:47;25.98;;;18.42;;
66739;SDS011;53653;52.188;8.602;2023-06-22T07:49:13;27.17;;;18.60;;
66739;SDS011;53653;52.188;8.602;2023-06-22T07:51:40;26.17;;;18.45;;
66739;SDS011;53653;52.188;8.602;2023-06-22T07:54:05;28.55;;;18.25;;
66739;SDS011;53653;52.188;8.602;2023-06-22T07:56:32;25.17;;;17.37;;
66739;SDS011;53653;52.188;8.602;2023-06-22T07:58:58;27.38;;;16.95;;
66739;SDS011;53653;52.188;8.602;2023-06-22T08:01:26;29.40;;;18.08;;
66739;SDS011;53653;52.188;8.602;2023-06-22T08:03:53;23.70;;;16.63;;
66739;SDS011;53653;52.188;8.602;2023-06-22T08:06:18;24.13;;;16.37;;
66739;SDS011;53653;52.188;8.602;2023-06-22T08:08:45;22.58;;;16.10;;
66739;SDS011;53653;52.188;8.602;2023-06-22T08:11:13;27.38;;;16.42;;
66739;SDS011;53653;52.188;8.602;2023-06-22T08:13:39;27.30;;;17.05;;
66739;SDS011;53653;52.188;8.602;2023-06-22T08:16:05;25.87;;;17.83;;
66739;SDS011;53653;52.188;8.602;2023-06-22T08:18:32;26.55;;;16.65;;
66739;SDS011;53653;52.188;8.602;2023-06-22T08:20:58;26.42;;;16.63;;
66739;SDS011;53653;52.188;8.602;2023-06-22T08:23:24;25.23;;;17.00;;
66739;SDS011;53653;52.188;8.602;2023-06-22T08:25:50;24.93;;;17.60;;
66739;SDS011;53653;52.188;8.602;2023-06-22T08:28:16;27.35;;;17.73;;
66739;SDS011;53653;52.188;8.602;2023-06-22T08:30:42;26.63;;;16.42;;
66739;SDS011;53653;52.188;8.602;2023-06-22T08:33:08;26.57;;;17.37;;
66739;SDS011;53653;52.188;8.602;2023-06-22T08:35:33;24.83;;;16.38;;
66739;SDS011;53653;52.188;8.602;2023-06-22T08:37:59;25.65;;;17.30;;
66739;SDS011;53653;52.188;8.602;2023-06-22T08:40:27;26.03;;;16.90;;
66739;SDS011;53653;52.188;8.602;2023-06-22T08:42:54;28.98;;;17.05;;
66739;SDS011;53653;52.188;8.602;2023-06-22T08:45:20;24.48;;;16.92;;
66739;SDS011;53653;52.188;8.602;2023-06-22T08:47:46;24.17;;;17.33;;
66739;SDS011;53653;52.188;8.602;2023-06-22T08:50:12;28.50;;;17.27;;
66739;SDS011;53653;52.188;8.602;2023-06-22T08:52:39;24.55;;;17.58;;
66739;SDS011;53653;52.188;8.602;2023-06-22T08:55:09;27.55;;;17.20;;
66739;SDS011;53653;52.188;8.602;2023-06-22T08:57:35;24.00;;;17.35;;
66739;SDS011;53653;52.188;8.602;2023-06-22T09:00:07;28.47;;;18.17;;
66739;SDS011;53653;52.188;8.602;2023-06-22T09:02:45;25.42;;;17.00;;
66739;SDS011;53653;52.188;8.602;2023-06-22T09:05:12;25.17;;;16.48;;
66739;SDS011;53653;52.188;8.602;2023-06-22T09:07:38;24.85;;;16.90;;
66739;SDS011;53653;52.188;8.602;2023-06-22T09:10:04;26.53;;;17.60;;
66739;SDS011;53653;52.188;8.602;2023-06-22T09:12:30;24.17;;;17.05;;
66739;SDS011;53653;52.188;8.602;2023-06-22T09:14:58;23.92;;;16.58;;
66739;SDS011;53653;52.188;8.602;2023-06-22T09:17:28;27.65;;;17.40;;
66739;SDS011;53653;52.188;8.602;2023-06-22T09:19:54;24.77;;;17.03;;
66739;SDS011;53653;52.188;8.602;2023-06-22T09:22:20;29.50;;;17.98;;
66739;SDS011;53653;52.188;8.602;2023-06-22T09:24:46;23.92;;;14.98;;
66739;SDS011;53653;52.188;8.602;2023-06-22T09:27:12;28.35;;;17.80;;
66739;SDS011;53653;52.188;8.602;2023-06-22T09:29:38;25.23;;;17.73;;
66739;SDS011;53653;52.188;8.602;2023-06-22T09:32:04;25.98;;;18.13;;
66739;SDS011;53653;52.188;8.602;2023-06-22T09:34:30;24.92;;;18.35;;
66739;SDS011;53653;52.188;8.602;2023-06-22T09:36:57;25.40;;;18.87;;
66739;SDS011;53653;52.188;8.602;2023-06-22T09:39:22;27.30;;;18.35;;
66739;SDS011;53653;52.188;8.602;2023-06-22T09:41:48;28.25;;;17.83;;
66739;SDS011;53653;52.188;8.602;2023-06-22T09:44:13;25.87;;;19.17;;
66739;SDS011;53653;52.188;8.602;2023-06-22T09:46:39;28.25;;;19.02;;
66739;SDS011;53653;52.188;8.602;2023-06-22T09:49:05;27.20;;;19.67;;
66739;SDS011;53653;52.188;8.602;2023-06-22T09:51:31;26.13;;;17.70;;
66739;SDS011;53653;52.188;8.602;2023-06-22T09:53:57;25.13;;;17.52;;
66739;SDS011;53653;52.188;8.602;2023-06-22T09:56:23;26.07;;;18.27;;
66739;SDS011;53653;52.188;8.602;2023-06-22T09:58:49;26.98;;;18.52;;
66739;SDS011;53653;52.188;8.602;2023-06-22T10:01:17;26.10;;;20.17;;
66739;SDS011;53653;52.188;8.602;2023-06-22T10:03:43;26.83;;;17.95;;
66739;SDS011;53653;52.188;8.602;2023-06-22T10:06:09;27.67;;;19.77;;
66739;SDS011;53653;52.188;8.602;2023-06-22T10:08:35;27.07;;;19.70;;
66739;SDS011;53653;52.188;8.602;2023-06-22T10:11:01;27.45;;;19.45;;
66739;SDS011;53653;52.188;8.602;2023-06-22T10:13:27;25.13;;;18.10;;
66739;SDS011;53653;52.188;8.602;2023-06-22T10:15:52;27.00;;;18.37;;
66739;SDS011;53653;52.188;8.602;2023-06-22T10:18:18;25.48;;;17.90;;
66739;SDS011;53653;52.188;8.602;2023-06-22T10:20:48;26.50;;;17.17;;
66739;SDS011;53653;52.188;8.602;2023-06-22T10:23:17;28.53;;;19.23;;
66739;SDS011;53653;52.188;8.602;2023-06-22T10:25:44;28.58;;;18.67;;
66739;SDS011;53653;52.188;8.602;2023-06-22T10:28:10;24.08;;;17.10;;
66739;SDS011;53653;52.188;8.602;2023-06-22T10:30:35;30.43;;;19.30;;
66739;SDS011;53653;52.188;8.602;2023-06-22T10:33:01;28.00;;;20.58;;
66739;SDS011;53653;52.188;8.602;2023-06-22T10:35:27;25.93;;;18.87;;
66739;SDS011;53653;52.188;8.602;2023-06-22T10:37:52;26.58;;;18.45;;
66739;SDS011;53653;52.188;8.602;2023-06-22T10:40:19;27.40;;;19.53;;
66739;SDS011;53653;52.188;8.602;2023-06-22T10:42:45;24.83;;;17.80;;
66739;SDS011;53653;52.188;8.602;2023-06-22T10:45:11;27.75;;;18.30;;
66739;SDS011;53653;52.188;8.602;2023-06-22T10:47:37;27.23;;;19.73;;
66739;SDS011;53653;52.188;8.602;2023-06-22T10:50:03;28.02;;;19.73;;
66739;SDS011;53653;52.188;8.602;2023-06-22T10:52:30;27.10;;;17.42;;
66739;SDS011;53653;52.188;8.602;2023-06-22T10:54:56;23.37;;;16.70;;
66739;SDS011;53653;52.188;8.602;2023-06-22T10:57:22;26.30;;;18.10;;
66739;SDS011;53653;52.188;8.602;2023-06-22T10:59:48;27.85;;;18.70;;
66739;SDS011;53653;52.188;8.602;2023-06-22T11:02:14;32.03;;;18.67;;
66739;SDS011;53653;52.188;8.602;2023-06-22T11:04:40;25.00;;;17.33;;
66739;SDS011;53653;52.188;8.602;2023-06-22T11:07:05;24.70;;;17.63;;
66739;SDS011;53653;52.188;8.602;2023-06-22T11:09:31;23.88;;;16.73;;
66739;SDS011;53653;52.188;8.602;2023-06-22T11:11:57;25.90;;;18.37;;
66739;SDS011;53653;52.188;8.602;2023-06-22T11:14:24;27.58;;;18.38;;
66739;SDS011;53653;52.188;8.602;2023-06-22T11:16:50;26.02;;;18.67;;
66739;SDS011;53653;52.188;8.602;2023-06-22T11:19:16;28.13;;;18.45;;
66739;SDS011;53653;52.188;8.602;2023-06-22T11:21:42;24.43;;;17.00;;
66739;SDS011;53653;52.188;8.602;2023-06-22T11:24:07;27.75;;;17.83;;
66739;SDS011;53653;52.188;8.602;2023-06-22T11:26:33;25.53;;;19.00;;
66739;SDS011;53653;52.188;8.602;2023-06-22T11:29:00;22.55;;;16.17;;
66739;SDS011;53653;52.188;8.602;2023-06-22T11:31:26;23.88;;;14.68;;
66739;SDS011;53653;52.188;8.602;2023-06-22T11:33:51;22.43;;;14.63;;
66739;SDS011;53653;52.188;8.602;2023-06-22T11:36:17;21.40;;;13.97;;
66739;SDS011;53653;52.188;8.602;2023-06-22T11:38:43;23.33;;;15.53;;
66739;SDS011;53653;52.188;8.602;2023-06-22T11:41:09;20.38;;;13.75;;
66739;SDS011;53653;52.188;8.602;2023-06-22T11:43:35;16.83;;;11.80;;
66739;SDS011;53653;52.188;8.602;2023-06-22T11:46:02;20.27;;;13.73;;
66739;SDS011;53653;52.188;8.602;2023-06-22T11:48:28;19.55;;;12.73;;
66739;SDS011;53653;52.188;8.602;2023-06-22T11:50:54;21.20;;;13.10;;
66739;SDS011;53653;52.188;8.602;2023-06-22T11:53:21;17.95;;;13.23;;
66739;SDS011;53653;52.188;8.602;2023-06-22T11:55:47;17.00;;;10.95;;
66739;SDS011;53653;52.188;8.602;2023-06-22T11:58:14;20.60;;;14.33;;
66739;SDS011;53653;52.188;8.602;2023-06-22T12:00:40;17.20;;;11.90;;
66739;SDS011;53653;52.188;8.602;2023-06-22T12:03:07;20.63;;;13.85;;
66739;SDS011;53653;52.188;8.602;2023-06-22T12:05:33;18.02;;;13.20;;
66739;SDS011;53653;52.188;8.602;2023-06-22T12:07:59;19.87;;;13.40;;
66739;SDS011;53653;52.188;8.602;2023-06-22T12:10:25;18.38;;;11.77;;
66739;SDS011;53653;52.188;8.602;2023-06-22T12:12:51;16.52;;;10.90;;
66739;SDS011;53653;52.188;8.602;2023-06-22T12:15:17;16.57;;;10.43;;
66739;SDS011;53653;52.188;8.602;2023-06-22T12:17:42;21.50;;;12.30;;
66739;SDS011;53653;52.188;8.602;2023-06-22T12:20:08;16.77;;;10.97;;
66739;SDS011;53653;52.188;8.602;2023-06-22T12:22:34;17.27;;;10.37;;
66739;SDS011;53653;52.188;8.602;2023-06-22T12:25:02;17.23;;;11.13;;
66739;SDS011;53653;52.188;8.602;2023-06-22T12:27:29;15.80;;;11.25;;
66739;SDS011;53653;52.188;8.602;2023-06-22T12:29:55;19.98;;;11.98;;
66739;SDS011;53653;52.188;8.602;2023-06-22T12:32:21;18.20;;;11.60;;
66739;SDS011;53653;52.188;8.602;2023-06-22T12:34:47;15.90;;;10.03;;
66739;SDS011;53653;52.188;8.602;2023-06-22T12:37:13;14.30;;;9.87;;
66739;SDS011;53653;52.188;8.602;2023-06-22T12:39:40;16.95;;;9.98;;
66739;SDS011;53653;52.188;8.602;2023-06-22T12:42:06;15.27;;;10.48;;
66739;SDS011;53653;52.188;8.602;2023-06-22T12:44:34;15.53;;;10.37;;
66739;SDS011;53653;52.188;8.602;2023-06-22T12:47:00;15.13;;;10.25;;
66739;SDS011;53653;52.188;8.602;2023-06-22T12:49:26;13.85;;;9.98;;
66739;SDS011;53653;52.188;8.602;2023-06-22T12:51:52;16.57;;;10.63;;
66739;SDS011;53653;52.188;8.602;2023-06-22T12:54:17;14.93;;;10.60;;
66739;SDS011;53653;52.188;8.602;2023-06-22T12:56:43;17.67;;;10.27;;
66739;SDS011;53653;52.188;8.602;2023-06-22T12:59:10;17.65;;;10.55;;
66739;SDS011;53653;52.188;8.602;2023-06-22T13:01:35;15.17;;;11.27;;
66739;SDS011;53653;52.188;8.602;2023-06-22T13:04:02;17.35;;;11.80;;
66739;SDS011;53653;52.188;8.602;2023-06-22T13:06:28;19.63;;;11.75;;
66739;SDS011;53653;52.188;8.602;2023-06-22T13:08:53;21.53;;;12.63;;
66739;SDS011;53653;52.188;8.602;2023-06-22T13:11:19;16.45;;;11.52;;
66739;SDS011;53653;52.188;8.602;2023-06-22T13:13:45;18.27;;;12.33;;
66739;SDS011;53653;52.188;8.602;2023-06-22T13:16:11;17.08;;;13.23;;
66739;SDS011;53653;52.188;8.602;2023-06-22T13:18:37;19.13;;;13.50;;
66739;SDS011;53653;52.188;8.602;2023-06-22T13:21:03;19.10;;;12.60;;
66739;SDS011;53653;52.188;8.602;2023-06-22T13:23:29;17.60;;;12.73;;
66739;SDS011;53653;52.188;8.602;2023-06-22T13:25:55;18.63;;;13.10;;
66739;SDS011;53653;52.188;8.602;2023-06-22T13:28:21;19.43;;;13.03;;
66739;SDS011;53653;52.188;8.602;2023-06-22T13:30:47;19.50;;;13.45;;
66739;SDS011;53653;52.188;8.602;2023-06-22T13:33:13;20.27;;;14.13;;
66739;SDS011;53653;52.188;8.602;2023-06-22T13:35:39;24.23;;;13.82;;
66739;SDS011;53653;52.188;8.602;2023-06-22T13:38:07;20.63;;;14.65;;
66739;SDS011;53653;52.188;8.602;2023-06-22T13:40:33;19.65;;;13.82;;
66739;SDS011;53653;52.188;8.602;2023-06-22T13:42:59;20.83;;;13.70;;
66739;SDS011;53653;52.188;8.602;2023-06-22T13:45:25;20.42;;;14.50;;
66739;SDS011;53653;52.188;8.602;2023-06-22T13:47:51;22.35;;;14.57;;
66739;SDS011;53653;52.188;8.602;2023-06-22T13:50:17;26.23;;;15.13;;
66739;SDS011;53653;52.188;8.602;2023-06-22T13:52:42;19.92;;;13.00;;
66739;SDS011;53653;52.188;8.602;2023-06-22T13:55:08;18.37;;;13.13;;
66739;SDS011;53653;52.188;8.602;2023-06-22T13:57:35;19.40;;;13.48;;
66739;SDS011;53653;52.188;8.602;2023-06-22T14:00:00;22.57;;;15.07;;
66739;SDS011;53653;52.188;8.602;2023-06-22T14:02:36;21.48;;;13.98;;
66739;SDS011;53653;52.188;8.602;2023-06-22T14:05:02;22.37;;;14.27;;
66739;SDS011;53653;52.188;8.602;2023-06-22T14:07:27;23.87;;;15.37;;
66739;SDS011;53653;52.188;8.602;2023-06-22T14:09:53;23.53;;;15.37;;
66739;SDS011;53653;52.188;8.602;2023-06-22T14:12:18;23.80;;;15.87;;
66739;SDS011;53653;52.188;8.602;2023-06-22T14:14:44;24.27;;;15.55;;
66739;SDS011;53653;52.188;8.602;2023-06-22T14:17:10;27.13;;;17.55;;
66739;SDS011;53653;52.188;8.602;2023-06-22T14:19:36;31.35;;;19.05;;
66739;SDS011;53653;52.188;8.602;2023-06-22T14:22:02;25.33;;;17.97;;
66739;SDS011;53653;52.188;8.602;2023-06-22T14:24:28;25.40;;;16.85;;
66739;SDS011;53653;52.188;8.602;2023-06-22T14:26:56;26.63;;;18.80;;